Time;durP1;ratioP1;P1;durP2;ratioP2;P2;SDS_P1;SDS_P2;PMS_P1;PMS_P2;Temp;Humidity;BMP_temperature;BMP_pressure;BME280_temperature;BME280_humidity;BME280_pressure;Samples;Min_cycle;Max_cycle;Signal;HPM_P1;HPM_P2
2021/11/16 00:02:00;;;;;;;;;;;;;;;4.95;84.68;96929.88;5074804;28;20412;-74
2021/11/16 00:04:26;;;;;;;;;;;;;;;4.99;84.43;96927.78;5074564;28;19950;-75
2021/11/16 00:06:53;;;;;;;;;;;;;;;4.97;83.67;96925.34;5073476;28;19962;-75
2021/11/16 00:09:19;;;;;;;;;;;;;;;4.94;84.26;96924.88;5074731;28;19952;-74
2021/11/16 00:11:45;;;;;;;;;;;;;;;4.94;84.74;96922.28;5074093;28;19961;-75
2021/11/16 00:14:12;;;;;;;;;;;;;;;4.95;84.37;96924.69;5074515;28;19949;-74
2021/11/16 00:16:39;;;;;;;;;;;;;;;4.94;84.25;96925.69;5074127;28;19961;-74
2021/11/16 00:19:07;;;;;;;;;;;;;;;4.96;84.30;96920.31;5074243;28;19962;-75
2021/11/16 00:21:33;;;;;;;;;;;;;;;4.97;84.61;96925.34;5074164;28;19960;-75
2021/11/16 00:24:03;;;;;;;;;;;;;;;5.01;84.74;96929.22;5074965;28;19960;-75
2021/11/16 00:26:29;;;;;;;;;;;;;;;5.02;84.56;96927.44;5059720;28;19966;-74
2021/11/16 00:28:55;;;;;;;;;;;;;;;5.03;84.08;96927.25;5074354;28;20341;-74
2021/11/16 00:31:21;;;;;;;;;;;;;;;5.00;83.36;96932.00;5074507;28;19949;-74
2021/11/16 00:33:48;;;;;;;;;;;;;;;4.92;83.88;96930.25;5073816;28;19959;-75
2021/11/16 00:36:14;;;;;;;;;;;;;;;4.91;84.29;96936.41;5073940;28;19973;-74
2021/11/16 00:38:41;;;;;;;;;;;;;;;4.93;84.69;96941.44;5073999;28;19966;-74
2021/11/16 00:41:07;;;;;;;;;;;;;;;4.95;84.47;96936.88;5073241;28;19967;-75
2021/11/16 00:43:34;;;;;;;;;;;;;;;4.96;84.35;96946.31;5074268;28;19960;-75
2021/11/16 00:46:00;;;;;;;;;;;;;;;4.94;84.45;96949.06;5073876;28;20433;-75
2021/11/16 00:48:26;;;;;;;;;;;;;;;4.95;84.47;96942.88;5073949;28;19964;-75
2021/11/16 00:50:56;;;;;;;;;;;;;;;4.97;84.14;96947.91;5073948;28;19961;-75
2021/11/16 00:53:23;;;;;;;;;;;;;;;4.93;83.75;96950.03;5072479;28;19963;-75
2021/11/16 00:55:49;;;;;;;;;;;;;;;4.83;83.90;96947.66;5072313;28;19987;-75
2021/11/16 00:58:15;;;;;;;;;;;;;;;4.78;83.71;96949.16;5073813;28;19955;-75
2021/11/16 01:00:42;;;;;;;;;;;;;;;4.72;83.92;96950.63;5073987;28;19968;-75
2021/11/16 01:03:12;;;;;;;;;;;;;;;4.68;84.31;96952.75;5073740;28;20311;-75
2021/11/16 01:05:39;;;;;;;;;;;;;;;4.65;84.38;96958.28;5074006;28;19957;-75
2021/11/16 01:08:05;;;;;;;;;;;;;;;4.62;84.48;96956.03;5073631;28;19961;-75
2021/11/16 01:10:31;;;;;;;;;;;;;;;4.62;84.71;96955.19;5073534;28;19968;-75
2021/11/16 01:12:57;;;;;;;;;;;;;;;4.65;84.81;96949.69;5073649;28;19961;-75
2021/11/16 01:15:23;;;;;;;;;;;;;;;4.67;84.87;96943.34;5073517;28;19956;-75
2021/11/16 01:17:49;;;;;;;;;;;;;;;4.71;84.70;96943.81;5073528;28;20340;-75
2021/11/16 01:20:18;;;;;;;;;;;;;;;4.75;84.84;96949.50;5074249;28;19964;-74
2021/11/16 01:22:45;;;;;;;;;;;;;;;4.77;84.87;96942.34;5073792;28;19973;-74
2021/11/16 01:25:12;;;;;;;;;;;;;;;4.81;84.67;96943.63;5079600;28;19962;-73
2021/11/16 01:27:38;;;;;;;;;;;;;;;4.80;84.66;96948.00;5080002;28;19959;-75
2021/11/16 01:30:06;;;;;;;;;;;;;;;4.79;84.28;96950.78;5080444;28;19963;-75
2021/11/16 01:32:41;;;;;;;;;;;;;;;4.79;84.54;96953.38;5080096;28;19958;-76
2021/11/16 01:35:07;;;;;;;;;;;;;;;4.77;84.00;96945.75;5080040;28;19957;-74
2021/11/16 01:37:34;;;;;;;;;;;;;;;4.74;84.21;96945.25;5078835;28;19964;-75
2021/11/16 01:40:01;;;;;;;;;;;;;;;4.71;83.93;96943.81;5079949;28;19953;-74
2021/11/16 01:42:27;;;;;;;;;;;;;;;4.69;84.06;96943.19;5080133;28;20401;-75
2021/11/16 01:44:53;;;;;;;;;;;;;;;4.63;84.16;96944.66;5079825;28;19964;-75
2021/11/16 01:47:19;;;;;;;;;;;;;;;4.65;84.70;96942.69;5079873;28;19985;-75
2021/11/16 01:49:45;;;;;;;;;;;;;;;4.67;84.39;96938.13;5079824;28;20019;-74
2021/11/16 01:52:11;;;;;;;;;;;;;;;4.71;84.56;96945.59;5079865;28;19964;-73
2021/11/16 01:54:37;;;;;;;;;;;;;;;4.74;84.64;96945.25;5078542;28;19975;-74
2021/11/16 01:57:04;;;;;;;;;;;;;;;4.78;84.27;96942.16;5079818;28;19989;-74
2021/11/16 01:59:30;;;;;;;;;;;;;;;4.80;83.63;96949.78;5079675;28;19965;-75
2021/11/16 02:01:56;;;;;;;;;;;;;;;4.74;84.02;96940.88;5079890;28;19960;-75
2021/11/16 02:04:22;;;;;;;;;;;;;;;4.72;84.02;96935.03;5079941;28;19962;-75
2021/11/16 02:06:48;;;;;;;;;;;;;;;4.75;84.58;96942.50;5080190;28;19963;-75
2021/11/16 02:09:15;;;;;;;;;;;;;;;4.78;84.14;96938.75;5079727;28;19953;-76
2021/11/16 02:11:41;;;;;;;;;;;;;;;4.79;83.95;96938.59;5079647;28;19951;-75
2021/11/16 02:14:10;;;;;;;;;;;;;;;4.82;83.88;96947.81;5079726;28;19959;-75
2021/11/16 02:16:36;;;;;;;;;;;;;;;4.82;83.76;96940.84;5079569;28;19965;-75
2021/11/16 02:19:03;;;;;;;;;;;;;;;4.83;83.75;96939.03;5079761;28;19955;-75
2021/11/16 02:21:29;;;;;;;;;;;;;;;4.84;83.43;96936.28;5079527;28;19950;-74
2021/11/16 02:23:56;;;;;;;;;;;;;;;4.71;82.91;96927.41;5078358;28;20473;-75
2021/11/16 02:26:23;;;;;;;;;;;;;;;4.61;83.12;96922.41;5079604;28;19966;-74
2021/11/16 02:28:49;;;;;;;;;;;;;;;4.59;83.58;96932.16;5079726;28;19969;-75
2021/11/16 02:31:15;;;;;;;;;;;;;;;4.59;83.74;96919.19;5079698;28;19966;-74
2021/11/16 02:33:41;;;;;;;;;;;;;;;4.61;84.16;96915.44;5079461;28;19974;-75
2021/11/16 02:36:07;;;;;;;;;;;;;;;4.64;84.13;96907.31;5077172;28;19975;-75
2021/11/16 02:38:33;;;;;;;;;;;;;;;4.67;83.61;96916.56;5076211;28;20344;-75
2021/11/16 02:41:01;;;;;;;;;;;;;;;4.67;83.64;96908.75;5076182;28;20405;-75
2021/11/16 02:43:28;;;;;;;;;;;;;;;4.66;83.61;96905.34;5076449;28;20396;-75
2021/11/16 02:45:54;;;;;;;;;;;;;;;4.67;83.64;96912.16;5076124;28;19954;-75
2021/11/16 02:48:20;;;;;;;;;;;;;;;4.65;83.71;96910.72;5076290;28;19959;-75
2021/11/16 02:50:50;;;;;;;;;;;;;;;4.63;84.36;96903.09;5076065;28;20014;-75
2021/11/16 02:53:18;;;;;;;;;;;;;;;4.65;84.51;96908.13;5064545;28;20398;-75
2021/11/16 02:55:44;;;;;;;;;;;;;;;4.67;84.52;96912.16;5076415;28;19982;-75
2021/11/16 02:58:11;;;;;;;;;;;;;;;4.65;83.84;96911.50;5075777;28;20018;-75
2021/11/16 03:00:38;;;;;;;;;;;;;;;4.65;84.25;96905.53;5076671;28;19962;-75
2021/11/16 03:03:04;;;;;;;;;;;;;;;4.66;84.33;96901.94;5075991;28;19959;-74
2021/11/16 03:05:36;;;;;;;;;;;;;;;4.69;84.23;96904.19;5076090;28;19963;-75
2021/11/16 03:08:12;;;;;;;;;;;;;;;4.70;83.42;96905.00;5075836;28;19963;-75
2021/11/16 03:10:38;;;;;;;;;;;;;;;4.66;83.34;96910.56;5059865;28;19963;-75
2021/11/16 03:13:04;;;;;;;;;;;;;;;4.58;83.77;96902.00;5075820;28;20339;-75
2021/11/16 03:15:30;;;;;;;;;;;;;;;4.55;84.24;96904.91;5075395;28;20042;-75
2021/11/16 03:17:56;;;;;;;;;;;;;;;4.58;84.70;96899.38;5075662;28;20058;-74
2021/11/16 03:20:23;;;;;;;;;;;;;;;4.62;84.71;96904.06;5075405;28;20036;-75
2021/11/16 03:22:53;;;;;;;;;;;;;;;4.64;84.30;96899.53;5075225;28;19984;-75
2021/11/16 03:25:20;;;;;;;;;;;;;;;4.67;84.07;96895.75;5075384;28;20303;-76
2021/11/16 03:27:51;;;;;;;;;;;;;;;4.71;84.15;96891.84;5075124;28;19955;-75
2021/11/16 03:30:17;;;;;;;;;;;;;;;4.74;84.05;96895.91;5075639;28;20031;-75
2021/11/16 03:32:44;;;;;;;;;;;;;;;4.77;83.61;96890.38;5074981;28;19960;-75
2021/11/16 03:35:10;;;;;;;;;;;;;;;4.79;83.71;96891.00;5075337;28;19963;-75
2021/11/16 03:37:40;;;;;;;;;;;;;;;4.80;83.80;96893.41;5075055;28;20034;-75
2021/11/16 03:40:06;;;;;;;;;;;;;;;4.80;83.85;96898.63;5075015;28;20394;-75
2021/11/16 03:42:34;;;;;;;;;;;;;;;4.78;83.49;96890.19;5075269;28;19955;-75
2021/11/16 03:45:00;;;;;;;;;;;;;;;4.78;83.63;96882.38;5075115;28;19955;-75
2021/11/16 03:47:25;;;;;;;;;;;;;;;4.79;83.27;96880.63;5074629;28;20370;-75
2021/11/16 03:49:51;;;;;;;;;;;;;;;4.74;83.52;96877.72;5074967;28;20050;-75
2021/11/16 03:52:21;;;;;;;;;;;;;;;4.63;83.50;96874.50;5074772;28;20064;-75
2021/11/16 03:54:47;;;;;;;;;;;;;;;4.56;84.43;96876.16;5074692;28;19986;-75
2021/11/16 03:57:13;;;;;;;;;;;;;;;4.55;84.74;96878.94;5074935;28;19974;-75
2021/11/16 03:59:39;;;;;;;;;;;;;;;4.56;85.06;96894.34;5074707;28;19953;-75
2021/11/16 04:02:05;;;;;;;;;;;;;;;4.57;84.89;96893.38;5074774;28;19995;-74
2021/11/16 04:04:32;;;;;;;;;;;;;;;4.56;84.75;96888.34;5075000;28;19956;-76
2021/11/16 04:06:58;;;;;;;;;;;;;;;4.57;84.81;96893.38;5074911;28;19974;-75
2021/11/16 04:09:24;;;;;;;;;;;;;;;4.59;84.76;96888.00;5074670;28;20033;-75
2021/11/16 04:11:50;;;;;;;;;;;;;;;4.61;84.65;96891.25;5074884;28;19959;-75
2021/11/16 04:14:16;;;;;;;;;;;;;;;4.64;84.61;96881.34;5074565;28;20323;-75
2021/11/16 04:16:42;;;;;;;;;;;;;;;4.67;84.55;96880.19;5074396;28;19982;-75
2021/11/16 04:19:08;;;;;;;;;;;;;;;4.68;84.21;96880.03;5074440;28;19956;-75
2021/11/16 04:21:34;;;;;;;;;;;;;;;4.69;84.07;96880.81;5074431;28;20435;-75
2021/11/16 04:24:00;;;;;;;;;;;;;;;4.64;83.91;96889.13;5074136;28;19964;-75
2021/11/16 04:26:26;;;;;;;;;;;;;;;4.57;84.35;96893.38;5074431;28;19961;-75
2021/11/16 04:28:52;;;;;;;;;;;;;;;4.50;84.16;96892.44;5074024;28;19999;-75
2021/11/16 04:31:18;;;;;;;;;;;;;;;4.43;84.41;96888.88;5074447;28;20045;-75
2021/11/16 04:33:44;;;;;;;;;;;;;;;4.43;84.83;96891.47;5074300;28;20086;-75
2021/11/16 04:36:12;;;;;;;;;;;;;;;4.46;84.76;96880.75;5073969;28;19970;-75
2021/11/16 04:38:38;;;;;;;;;;;;;;;4.48;84.95;96879.59;5073974;28;19970;-75
2021/11/16 04:41:04;;;;;;;;;;;;;;;4.45;84.36;96879.97;5074351;28;20014;-75
2021/11/16 04:43:31;;;;;;;;;;;;;;;4.40;84.60;96871.03;5073892;28;19965;-75
2021/11/16 04:46:04;;;;;;;;;;;;;;;4.40;84.99;96869.25;5073767;28;19962;-75
2021/11/16 05:04:42;;;;;;;;;;;;;;;4.60;84.48;96898.25;5073924;28;19953;-75
2021/11/16 05:07:15;;;;;;;;;;;;;;;4.61;84.36;96899.03;5073794;28;19973;-75
2021/11/16 05:09:45;;;;;;;;;;;;;;;4.57;83.49;96888.16;5073554;28;19964;-75
2021/11/16 05:12:11;;;;;;;;;;;;;;;4.53;83.86;96891.28;5073792;28;19955;-74
2021/11/16 05:14:37;;;;;;;;;;;;;;;4.52;84.39;96900.88;5073639;28;19955;-75
2021/11/16 05:17:03;;;;;;;;;;;;;;;4.54;84.37;96898.91;5073416;28;20350;-75
2021/11/16 05:19:29;;;;;;;;;;;;;;;4.56;84.21;96899.56;5074328;28;20506;-74
2021/11/16 05:21:55;;;;;;;;;;;;;;;4.56;84.41;96899.56;5073415;28;20038;-74
2021/11/16 05:24:24;;;;;;;;;;;;;;;4.57;84.20;96900.34;5073719;28;20412;-74
2021/11/16 05:26:51;;;;;;;;;;;;;;;4.55;84.02;96892.72;5073697;28;19960;-74
2021/11/16 05:29:17;;;;;;;;;;;;;;;4.57;84.12;96892.56;5073394;28;19953;-74
2021/11/16 05:31:43;;;;;;;;;;;;;;;4.56;83.69;96894.34;5073275;28;20414;-74
2021/11/16 05:34:09;;;;;;;;;;;;;;;4.53;84.19;96894.69;5073324;28;19962;-74
2021/11/16 05:36:35;;;;;;;;;;;;;;;4.51;84.49;96898.44;5073483;28;19967;-75
2021/11/16 05:39:01;;;;;;;;;;;;;;;4.51;84.50;96903.63;5073423;28;20360;-75
2021/11/16 05:41:26;;;;;;;;;;;;;;;4.51;83.98;96903.63;5073795;28;20093;-75
2021/11/16 05:43:52;;;;;;;;;;;;;;;4.48;84.20;96902.19;5073337;28;20050;-75
2021/11/16 05:46:22;;;;;;;;;;;;;;;4.48;84.57;96905.56;5073518;28;20403;-75
2021/11/16 05:48:49;;;;;;;;;;;;;;;4.49;84.76;96908.97;5073139;28;19955;-74
2021/11/16 05:51:15;;;;;;;;;;;;;;;4.50;84.77;96912.41;5073208;28;20317;-75
2021/11/16 05:53:44;;;;;;;;;;;;;;;4.50;84.96;96910.63;5072818;28;19957;-76
2021/11/16 05:56:10;;;;;;;;;;;;;;;4.50;85.04;96908.00;5073397;28;19967;-75
2021/11/16 05:58:39;;;;;;;;;;;;;;;4.48;84.74;96913.38;5072997;28;19982;-75
2021/11/16 06:01:05;;;;;;;;;;;;;;;4.47;84.74;96911.75;5073202;28;20404;-75
2021/11/16 06:03:31;;;;;;;;;;;;;;;4.47;84.95;96910.94;5072895;28;19968;-74
2021/11/16 06:05:57;;;;;;;;;;;;;;;4.47;84.96;96916.13;5073681;28;20378;-75
2021/11/16 06:08:24;;;;;;;;;;;;;;;4.46;85.06;96912.72;5073551;28;20366;-75
2021/11/16 06:10:50;;;;;;;;;;;;;;;4.47;84.80;96911.75;5075303;28;19957;-75
2021/11/16 06:13:16;;;;;;;;;;;;;;;4.48;84.98;96910.78;5076644;28;19956;-76
2021/11/16 06:15:42;;;;;;;;;;;;;;;4.50;84.93;96910.63;5076815;28;19957;-75
2021/11/16 06:18:08;;;;;;;;;;;;;;;4.46;85.00;96904.94;5076735;28;19971;-75
2021/11/16 06:20:34;;;;;;;;;;;;;;;4.47;85.68;96910.94;5076706;28;19954;-75
2021/11/16 06:23:00;;;;;;;;;;;;;;;4.46;85.83;96906.72;5075546;28;19953;-75
2021/11/16 06:25:26;;;;;;;;;;;;;;;4.48;85.50;96912.56;5076400;28;20042;-75
2021/11/16 06:27:52;;;;;;;;;;;;;;;4.48;85.40;96915.16;5076783;28;20002;-75
2021/11/16 06:30:18;;;;;;;;;;;;;;;4.46;85.66;96922.31;5076627;28;19964;-75
2021/11/16 06:32:44;;;;;;;;;;;;;;;4.45;85.44;96916.31;5076466;28;20068;-75
2021/11/16 06:35:17;;;;;;;;;;;;;;;4.46;85.49;96924.91;5076671;28;19967;-75
2021/11/16 06:37:44;;;;;;;;;;;;;;;4.45;85.55;96921.50;5076569;28;20454;-75
2021/11/16 06:40:10;;;;;;;;;;;;;;;4.48;85.61;96928.16;5076570;28;19955;-75
2021/11/16 06:42:37;;;;;;;;;;;;;;;4.48;85.48;96922.94;5076264;28;19963;-75
2021/11/16 06:45:03;;;;;;;;;;;;;;;4.48;85.78;96921.16;5076176;28;19960;-75
2021/11/16 06:47:29;;;;;;;;;;;;;;;4.47;85.80;96916.97;5075112;28;20460;-75
2021/11/16 06:49:55;;;;;;;;;;;;;;;4.46;85.63;96919.72;5076104;28;20000;-75
2021/11/16 06:52:21;;;;;;;;;;;;;;;4.43;85.95;96915.66;5076303;28;20364;-74
2021/11/16 06:54:47;;;;;;;;;;;;;;;4.43;86.35;96914.84;5076095;28;19985;-75
2021/11/16 06:57:13;;;;;;;;;;;;;;;4.46;86.04;96911.91;5075891;28;19977;-75
2021/11/16 06:59:39;;;;;;;;;;;;;;;4.49;86.29;96921.97;5076003;28;19955;-75
2021/11/16 07:02:06;;;;;;;;;;;;;;;4.49;86.40;96921.97;5076052;28;19947;-75
2021/11/16 07:04:39;;;;;;;;;;;;;;;4.53;86.12;96925.84;5075868;28;19954;-75
2021/11/16 07:07:05;;;;;;;;;;;;;;;4.53;85.91;96933.63;5076056;28;19964;-75
2021/11/16 07:09:36;;;;;;;;;;;;;;;4.50;85.82;96930.59;5075715;28;19957;-76
2021/11/16 07:12:08;;;;;;;;;;;;;;;4.48;85.87;96935.94;5076288;28;19956;-74
2021/11/16 07:14:38;;;;;;;;;;;;;;;4.47;85.67;96934.31;5075795;28;19953;-75
2021/11/16 07:17:06;;;;;;;;;;;;;;;4.47;85.98;96937.72;5076388;28;19954;-75
2021/11/16 07:19:38;;;;;;;;;;;;;;;4.50;85.81;96941.78;5075514;28;19945;-74
2021/11/16 07:22:09;;;;;;;;;;;;;;;4.50;85.82;96939.19;5073415;28;19957;-75
2021/11/16 07:24:43;;;;;;;;;;;;;;;4.51;85.88;96927.00;5074307;28;19961;-75
2021/11/16 07:27:09;;;;;;;;;;;;;;;4.53;85.85;96931.03;5075864;28;19960;-76
2021/11/16 07:29:35;;;;;;;;;;;;;;;4.55;85.88;96923.09;5075280;28;19962;-75
2021/11/16 07:32:03;;;;;;;;;;;;;;;4.52;85.53;96929.44;5075287;28;19969;-75
2021/11/16 07:34:30;;;;;;;;;;;;;;;4.42;85.56;96931.41;5075286;28;20086;-75
2021/11/16 07:36:57;;;;;;;;;;;;;;;4.41;86.25;96940.16;5075366;28;19960;-74
2021/11/16 07:39:24;;;;;;;;;;;;;;;4.42;86.72;96942.59;5075052;28;20434;-75
2021/11/16 07:41:51;;;;;;;;;;;;;;;4.42;86.86;96945.19;5075174;28;19962;-74
2021/11/16 07:44:17;;;;;;;;;;;;;;;4.45;86.58;96955.28;5075078;28;19949;-75
2021/11/16 07:46:54;;;;;;;;;;;;;;;4.48;86.35;96952.31;5075300;28;19951;-74
2021/11/16 07:49:21;;;;;;;;;;;;;;;4.49;86.20;96958.31;5065854;28;19954;-75
2021/11/16 07:51:48;;;;;;;;;;;;;;;4.48;86.24;96957.53;5074808;28;19969;-75
2021/11/16 07:54:19;;;;;;;;;;;;;;;4.52;86.65;96962.41;5074946;28;20368;-75
2021/11/16 07:56:45;;;;;;;;;;;;;;;4.56;86.69;96954.09;5074790;28;19966;-74
2021/11/16 07:59:11;;;;;;;;;;;;;;;4.60;86.80;96949.34;5073700;28;19984;-75
2021/11/16 08:04:18;;;;;;;;;;;;;;;4.60;86.22;96955.38;5075001;28;19965;-75
2021/11/16 08:06:53;;;;;;;;;;;;;;;4.63;86.34;96955.03;5075066;28;20361;-75
2021/11/16 08:12:03;;;;;;;;;;;;;;;4.69;86.44;96956.16;5074671;28;19968;-76
2021/11/16 08:14:29;;;;;;;;;;;;;;;4.70;86.16;96957.78;5074925;28;19962;-75
2021/11/16 08:16:59;;;;;;;;;;;;;;;4.71;86.21;96959.41;5074575;28;19993;-75
2021/11/16 08:19:33;;;;;;;;;;;;;;;4.72;86.26;96955.00;5074900;28;19973;-75
2021/11/16 08:22:02;;;;;;;;;;;;;;;4.71;85.92;96953.41;5074642;28;19963;-75
2021/11/16 08:24:29;;;;;;;;;;;;;;;4.70;86.22;96954.38;5074143;28;20438;-75
2021/11/16 08:26:56;;;;;;;;;;;;;;;4.70;85.93;96957.78;5074384;28;19982;-75
2021/11/16 08:29:24;;;;;;;;;;;;;;;4.72;85.79;96961.00;5074238;28;19953;-75
2021/11/16 08:31:53;;;;;;;;;;;;;;;4.75;85.87;96968.47;5074402;28;19966;-75
2021/11/16 08:34:19;;;;;;;;;;;;;;;4.75;85.24;96965.09;5074100;28;19962;-75
2021/11/16 08:36:48;;;;;;;;;;;;;;;4.75;86.20;96959.88;5074103;28;19964;-75
2021/11/16 08:39:15;;;;;;;;;;;;;;;4.75;85.76;96970.28;5074199;28;19964;-75
2021/11/16 08:41:41;;;;;;;;;;;;;;;4.77;85.42;96966.53;5073875;28;19956;-75
2021/11/16 08:44:09;;;;;;;;;;;;;;;4.72;84.46;96968.00;5074895;28;20016;-75
2021/11/16 08:46:35;;;;;;;;;;;;;;;4.69;84.99;96976.94;5073942;28;20425;-75
2021/11/16 08:49:01;;;;;;;;;;;;;;;4.66;85.37;96978.09;5073730;28;19963;-75
2021/11/16 08:51:37;;;;;;;;;;;;;;;4.68;85.31;96968.34;5073976;28;19951;-75
2021/11/16 08:54:03;;;;;;;;;;;;;;;4.68;84.85;96967.50;5073198;28;19994;-75
2021/11/16 08:56:35;;;;;;;;;;;;;;;4.91;98.96;96966.78;5074144;28;19983;-76
2021/11/16 08:59:08;;;;;;;;;;;;;;;5.17;90.96;96962.13;5074238;28;19973;-74
2021/11/16 09:01:34;;;;;;;;;;;;;;;5.21;86.15;96955.59;5072532;28;20335;-74
2021/11/16 09:04:00;;;;;;;;;;;;;;;5.19;84.24;96961.97;5073829;28;19955;-76
2021/11/16 09:06:30;;;;;;;;;;;;;;;5.13;84.55;96957.44;5073962;28;19961;-75
2021/11/16 09:09:00;;;;;;;;;;;;;;;5.11;84.08;96955.00;5073630;28;19963;-75
2021/11/16 09:11:26;;;;;;;;;;;;;;;5.09;83.96;96957.78;5073792;28;19950;-75
2021/11/16 09:13:52;;;;;;;;;;;;;;;5.06;83.50;96955.53;5073851;28;19964;-75
2021/11/16 09:16:19;;;;;;;;;;;;;;;5.00;83.06;96963.19;5073558;28;19963;-75
2021/11/16 09:18:47;;;;;;;;;;;;;;;4.99;83.63;96961.56;5073508;28;19978;-75
2021/11/16 09:21:24;;;;;;;;;;;;;;;4.98;83.80;96963.34;5073362;28;19952;-75
2021/11/16 09:24:00;;;;;;;;;;;;;;;4.97;82.13;96972.13;5073567;28;19965;-76
2021/11/16 09:28:57;;;;;;;;;;;;;;;4.88;82.38;96960.16;5073766;28;19957;-74
2021/11/16 09:31:23;;;;;;;;;;;;;;;4.85;82.93;96950.91;5073401;28;19960;-75
2021/11/16 09:33:50;;;;;;;;;;;;;;;4.85;82.91;96950.06;5073539;28;19959;-75
2021/11/16 09:36:20;;;;;;;;;;;;;;;4.82;83.11;96955.63;5072482;28;19960;-75
2021/11/16 09:38:49;;;;;;;;;;;;;;;4.83;83.17;96955.47;5073183;28;20321;-75
2021/11/16 09:41:20;;;;;;;;;;;;;;;4.84;83.37;96956.25;5073379;28;20339;-75
2021/11/16 09:43:54;;;;;;;;;;;;;;;4.83;82.48;96952.03;5073247;28;19957;-75
2021/11/16 09:46:20;;;;;;;;;;;;;;;4.81;83.02;96962.63;5076547;28;20398;-75
2021/11/16 09:48:46;;;;;;;;;;;;;;;4.85;83.68;96957.88;5077521;28;20396;-75
2021/11/16 09:51:14;;;;;;;;;;;;;;;4.89;83.80;96953.97;5077205;28;19956;-75
2021/11/16 09:53:40;;;;;;;;;;;;;;;4.93;83.71;96959.63;5077188;28;19955;-75
2021/11/16 09:56:16;;;;;;;;;;;;;;;4.94;83.11;96956.06;5077164;28;19954;-75
2021/11/16 09:58:43;;;;;;;;;;;;;;;4.94;83.16;96964.69;5077069;28;19967;-75
2021/11/16 10:01:10;;;;;;;;;;;;;;;4.94;82.09;96959.47;5077030;28;20400;-75
2021/11/16 10:03:35;;;;;;;;;;;;;;;4.96;82.94;96952.31;5077066;28;19962;-75
2021/11/16 10:06:01;;;;;;;;;;;;;;;5.00;83.05;96950.19;5077047;28;19976;-75
2021/11/16 10:08:28;;;;;;;;;;;;;;;5.01;82.31;96951.81;5077136;28;19954;-75
2021/11/16 10:10:57;;;;;;;;;;;;;;;5.01;82.20;96955.19;5076638;28;19952;-75
2021/11/16 10:13:26;;;;;;;;;;;;;;;5.05;82.43;96956.50;5076975;28;20430;-75
2021/11/16 10:15:55;;;;;;;;;;;;;;;5.06;81.93;96952.91;5076695;28;19954;-75
2021/11/16 10:18:22;;;;;;;;;;;;;;;5.08;83.07;96948.38;5076741;28;19957;-75
2021/11/16 10:20:48;;;;;;;;;;;;;;;5.14;83.00;96943.44;5075573;28;19954;-75
2021/11/16 10:23:16;;;;;;;;;;;;;;;5.18;82.55;96932.53;5076644;28;19955;-75
2021/11/16 10:25:50;;;;;;;;;;;;;;;5.22;82.92;96933.81;5076773;28;19957;-75
2021/11/16 10:28:17;;;;;;;;;;;;;;;5.23;81.84;96935.44;5076462;28;19951;-75
2021/11/16 10:30:45;;;;;;;;;;;;;;;5.21;81.51;96940.00;5076522;28;19973;-75
2021/11/16 10:33:11;;;;;;;;;;;;;;;5.17;81.62;96935.31;5076499;28;19956;-75
2021/11/16 10:35:42;;;;;;;;;;;;;;;5.19;82.23;96928.16;5076481;28;20355;-75
2021/11/16 10:38:11;;;;;;;;;;;;;;;5.20;82.51;96935.78;5076286;28;19971;-75
2021/11/16 10:40:37;;;;;;;;;;;;;;;5.22;82.32;96928.59;5076511;28;19963;-75
2021/11/16 10:43:05;;;;;;;;;;;;;;;5.22;82.08;96926.00;5076327;28;19957;-75
2021/11/16 10:45:33;;;;;;;;;;;;;;;5.21;81.81;96929.59;5076409;28;19954;-75
2021/11/16 10:48:00;;;;;;;;;;;;;;;5.19;82.24;96923.75;5076338;28;19959;-75
2021/11/16 10:50:29;;;;;;;;;;;;;;;5.18;82.33;96929.13;5076028;28;19957;-75
2021/11/16 10:53:05;;;;;;;;;;;;;;;5.17;82.33;96925.72;5075211;28;20403;-75
2021/11/16 10:55:34;;;;;;;;;;;;;;;5.18;82.21;96922.13;5076411;28;19986;-75
2021/11/16 10:58:05;;;;;;;;;;;;;;;5.21;82.75;96919.19;5074872;28;20322;-74
2021/11/16 11:00:43;;;;;;;;;;;;;;;5.24;82.49;96918.03;5076154;28;19951;-75
2021/11/16 11:03:29;;;;;;;;;;;;;;;5.26;82.26;96916.88;5076101;28;20398;-76
2021/11/16 11:05:57;;;;;;;;;;;;;;;5.27;81.62;96910.72;5076156;28;19953;-75
2021/11/16 11:08:30;;;;;;;;;;;;;;;5.29;82.82;96913.94;5075847;28;20020;-75
2021/11/16 11:10:58;;;;;;;;;;;;;;;5.30;82.18;96912.16;5075660;28;19956;-75
2021/11/16 11:13:28;;;;;;;;;;;;;;;5.24;82.09;96918.84;5075737;28;19959;-76
2021/11/16 11:15:54;;;;;;;;;;;;;;;5.21;82.62;96916.59;5076139;28;19953;-75
2021/11/16 11:18:29;;;;;;;;;;;;;;;5.22;82.39;96914.81;5075712;28;19975;-74
2021/11/16 11:20:59;;;;;;;;;;;;;;;5.22;82.53;96912.19;5061973;28;19957;-75
2021/11/16 11:23:38;;;;;;;;;;;;;;;5.25;83.18;96911.88;5075910;28;19947;-74
2021/11/16 11:26:22;;;;;;;;;;;;;;;5.28;83.55;96904.50;5075345;28;19965;-75
2021/11/16 11:29:13;;;;;;;;;;;;;;;5.31;82.93;96900.75;5075434;28;19947;-75
2021/11/16 11:31:38;;;;;;;;;;;;;;;5.36;82.35;96900.25;5075497;28;19954;-75
2021/11/16 11:34:04;;;;;;;;;;;;;;;5.36;82.17;96906.25;5075483;28;20465;-75
2021/11/16 11:36:30;;;;;;;;;;;;;;;5.37;81.91;96912.25;5075557;28;19991;-75
2021/11/16 11:38:56;;;;;;;;;;;;;;;5.37;82.36;96909.66;5075659;28;19986;-75
2021/11/16 11:41:23;;;;;;;;;;;;;;;5.33;82.76;96908.38;5075077;28;19965;-75
2021/11/16 11:44:18;;;;;;;;;;;;;;;5.32;81.83;96902.38;5075302;28;19950;-75
2021/11/16 11:46:44;;;;;;;;;;;;;;;5.32;82.78;96902.38;5062481;28;19971;-75
2021/11/16 11:49:10;;;;;;;;;;;;;;;5.29;82.47;96900.94;5074951;28;19961;-75
2021/11/16 11:51:36;;;;;;;;;;;;;;;5.28;82.71;96903.72;5075126;28;19953;-74
2021/11/16 11:54:02;;;;;;;;;;;;;;;5.63;99.42;96898.91;5074967;28;19977;-74
2021/11/16 11:56:29;;;;;;;;;;;;;;;5.91;87.87;96899.16;5075275;28;19973;-75
2021/11/16 11:58:56;;;;;;;;;;;;;;;5.96;83.77;96894.22;5074770;28;19977;-76
2021/11/16 12:01:28;;;;;;;;;;;;;;;5.90;82.67;96897.53;5074625;28;19961;-75
2021/11/16 12:03:55;;;;;;;;;;;;;;;5.82;82.11;96882.81;5074674;28;20410;-75
2021/11/16 12:06:25;;;;;;;;;;;;;;;5.75;82.20;96881.06;5074908;28;19961;-75
2021/11/16 12:08:52;;;;;;;;;;;;;;;5.70;82.28;96881.59;5074471;28;19956;-75
2021/11/16 12:11:19;;;;;;;;;;;;;;;5.64;81.47;96879.72;5074704;28;20426;-75
2021/11/16 12:13:46;;;;;;;;;;;;;;;5.58;81.77;96880.41;5074473;28;19960;-75
2021/11/16 12:16:21;;;;;;;;;;;;;;;5.55;82.28;96888.56;5074544;28;19960;-75
2021/11/16 12:18:50;;;;;;;;;;;;;;;5.51;82.08;96880.31;5074274;28;20418;-75
2021/11/16 12:21:30;;;;;;;;;;;;;;;5.51;82.37;96875.09;5074590;28;19955;-75
2021/11/16 12:24:01;;;;;;;;;;;;;;;5.52;82.10;96870.69;5061799;28;19954;-75
2021/11/16 12:26:28;;;;;;;;;;;;;;;5.52;82.21;96871.50;5074378;28;19967;-75
2021/11/16 12:29:10;;;;;;;;;;;;;;;5.54;82.25;96866.13;5074127;28;20315;-75
2021/11/16 12:31:36;;;;;;;;;;;;;;;5.52;82.38;96865.50;5074243;28;19963;-74
2021/11/16 12:34:02;;;;;;;;;;;;;;;5.51;81.51;96869.09;5074176;28;19963;-75
2021/11/16 12:36:27;;;;;;;;;;;;;;;5.49;82.02;96864.84;5074028;28;19966;-75
2021/11/16 12:38:53;;;;;;;;;;;;;;;5.52;82.21;96863.69;5074125;28;20339;-75
2021/11/16 12:41:32;;;;;;;;;;;;;;;5.55;82.58;96858.16;5073871;28;19963;-75
2021/11/16 12:44:03;;;;;;;;;;;;;;;5.53;81.67;96862.72;5073989;28;19956;-75
2021/11/16 12:46:32;;;;;;;;;;;;;;;5.49;81.61;96864.06;5074450;28;20352;-75
2021/11/16 12:48:59;;;;;;;;;;;;;;;5.50;82.19;96857.84;5074019;28;20459;-75
2021/11/16 12:51:34;;;;;;;;;;;;;;;5.52;82.23;96865.50;5073762;28;19966;-75
2021/11/16 12:54:06;;;;;;;;;;;;;;;5.56;82.41;96853.75;5074237;28;19986;-75
2021/11/16 12:56:47;;;;;;;;;;;;;;;5.56;82.27;96861.56;5073784;28;19967;-75
2021/11/16 12:59:13;;;;;;;;;;;;;;;5.56;81.98;96857.16;5073923;28;19978;-75
2021/11/16 13:01:43;;;;;;;;;;;;;;;5.51;81.59;96862.09;5072697;28;21541;-75
2021/11/16 13:04:11;;;;;;;;;;;;;;;5.46;81.72;96852.22;5074312;28;19959;-75
2021/11/16 13:06:38;;;;;;;;;;;;;;;5.44;81.79;96862.00;5073787;28;20328;-75
2021/11/16 13:09:05;;;;;;;;;;;;;;;5.43;81.64;96857.75;5073870;28;19963;-75
2021/11/16 13:11:38;;;;;;;;;;;;;;;5.40;82.00;96863.31;5073751;28;19965;-75
2021/11/16 13:14:04;;;;;;;;;;;;;;;5.41;82.52;96864.13;5073618;28;19960;-75
2021/11/16 13:16:30;;;;;;;;;;;;;;;5.44;82.81;96859.38;5073838;28;19986;-75
2021/11/16 13:18:57;;;;;;;;;;;;;;;5.43;82.43;96854.34;5073166;28;19971;-75
2021/11/16 13:21:24;;;;;;;;;;;;;;;5.45;82.88;96849.78;5073531;28;19954;-75
2021/11/16 13:23:55;;;;;;;;;;;;;;;5.44;82.23;96845.56;5073645;28;19963;-76
2021/11/16 13:26:33;;;;;;;;;;;;;;;5.45;82.80;96844.59;5073794;28;19954;-75